АеродромСaдржaj METAR извeштaja
LYBEMETAR LYBE 252100Z 11003KT 3000 BR NSC 05/00 Q1023 NOSIG=
LYBTMETAR LYBT 252100Z 10001KT 6000 NSC 01/M01 Q1023 NOSIG=
LYKVMETAR LYKV 252100Z 09002KT 7000 NSC 02/02 Q1024 NOSIG=
LYNIMETAR LYNI 252100Z 07003KT 5000 BR NSC 03/M01 Q1024 NOSIG=
LYVRMETAR LYVR 252100Z AUTO VRB02KT CAVOK 06/M02 Q1023=
LYUZMETAR LYUZ 252100Z AUTO VRB01KT CAVOK 06/00 Q1023=
LYPGMETAR LYPG 252100Z 07002KT 0200 R18/0325N R36/0250N FG VV003 06/06 Q1026 NOSIG=
LYTVMETAR LYTV 252100Z VRB01KT 9999 FEW050 06/06 Q1025=

Подаци учитани у: 2020-01-25 21:10:17 UTC

METAR, TAF, AIRMET, GAMET, SIGMET

Важна напомена: MET информације на овим web страницама имају информативни карактер, намeњeнe су искључивo ваздухопловним корисницимa, не смеју се користити за било које комерцијалне сврхе, и не замењују документацију за лет.